Butaritari, Kiribati
Current Conditions -  °F | °C
As of 5:00 PM on Tuesday 21 Oct 2014 (Local Time) from NGTT Reporting Station
Few Clouds Few Clouds  
Wind Chill: 86°   Ceiling: Unl
Heat Index: 93°   Visibility: 6mi
Dew Point: 73°   Wind: 2mph
Humidity: 66%   Direction: NA
Pressure: 29.77"   Gusts: NA
Location:  3.08°N, 172.79°E
Report Text: NGTT 210500Z VRB02KT 9999 FEW020 30/23 Q1008
Loading
Personal Weather Stations






























Interactive Weather Map
Tropical Storm Tracking
New forecast layout! Learn more

10-Day Weather Forecast

Advertisements
Track Severe Weather on mobile